Time;durP1;ratioP1;P1;durP2;ratioP2;P2;SDS_P1;SDS_P2;PMS_P1;PMS_P2;Temp;Humidity;BMP_temperature;BMP_pressure;BME280_temperature;BME280_humidity;BME280_pressure;Samples;Min_cycle;Max_cycle;Signal;HPM_P1;HPM_P2
2022/03/19 00:00:30;;;;;;;1999.90;999.90;;;9.10;99.90;;;;;;5053860;28;20976;-71
2022/03/19 00:02:56;;;;;;;1999.90;999.90;;;9.00;99.90;;;;;;5053867;28;20649;-71
2022/03/19 00:05:21;;;;;;;1999.90;999.90;;;9.00;99.90;;;;;;5052925;28;20559;-72
2022/03/19 00:07:48;;;;;;;1999.90;999.90;;;8.90;99.90;;;;;;5052909;28;20166;-71
2022/03/19 00:10:15;;;;;;;1999.90;999.90;;;8.80;99.90;;;;;;5051817;28;20173;-71
2022/03/19 00:12:41;;;;;;;1999.90;999.90;;;8.80;99.90;;;;;;5052645;28;20430;-71
2022/03/19 00:15:08;;;;;;;1999.90;999.90;;;8.80;99.90;;;;;;5052473;28;20496;-72
2022/03/19 00:17:34;;;;;;;1999.90;999.90;;;8.80;99.90;;;;;;5052698;28;20195;-72
2022/03/19 00:19:59;;;;;;;1999.90;999.90;;;8.70;99.90;;;;;;5052652;28;20407;-72
2022/03/19 00:22:25;;;;;;;1999.90;999.90;;;8.60;99.90;;;;;;5052517;28;20192;-72
2022/03/19 00:24:51;;;;;;;1999.90;999.90;;;8.60;99.90;;;;;;5052208;28;20180;-72
2022/03/19 00:27:16;;;;;;;1999.90;999.90;;;8.60;99.90;;;;;;5052800;28;20562;-72
2022/03/19 00:29:42;;;;;;;1999.90;999.90;;;8.60;99.90;;;;;;5052502;28;20175;-72
2022/03/19 00:32:08;;;;;;;1999.90;999.90;;;8.50;99.90;;;;;;5052351;28;20207;-72
2022/03/19 00:34:34;;;;;;;1999.90;999.90;;;8.50;99.90;;;;;;5052120;28;20403;-72
2022/03/19 00:36:59;;;;;;;1999.90;999.90;;;8.40;99.90;;;;;;5052306;28;20186;-72
2022/03/19 00:39:25;;;;;;;1999.90;999.90;;;8.40;99.90;;;;;;5052311;28;20223;-72
2022/03/19 00:41:54;;;;;;;1999.90;999.90;;;8.40;99.90;;;;;;5052400;28;20188;-72
2022/03/19 00:44:23;;;;;;;1999.90;999.90;;;8.40;99.90;;;;;;5052001;28;20196;-72
2022/03/19 00:46:49;;;;;;;1999.90;999.90;;;8.30;99.90;;;;;;5052262;28;20541;-72
2022/03/19 00:49:15;;;;;;;1999.90;999.90;;;8.30;99.90;;;;;;5052135;28;20418;-72
2022/03/19 00:51:41;;;;;;;1999.90;999.90;;;8.30;99.90;;;;;;5052115;28;20419;-72
2022/03/19 00:54:07;;;;;;;1999.90;999.90;;;8.20;99.90;;;;;;5051801;28;20174;-72
2022/03/19 00:56:33;;;;;;;1999.90;999.90;;;8.20;99.90;;;;;;5052093;28;20172;-72
2022/03/19 00:59:00;;;;;;;1999.90;999.90;;;8.20;99.90;;;;;;5052182;28;20457;-70
2022/03/19 01:01:26;;;;;;;1999.90;999.90;;;8.20;99.90;;;;;;5052028;28;20933;-71
2022/03/19 01:03:51;;;;;;;1999.90;999.90;;;8.20;99.90;;;;;;5051981;28;20413;-71
2022/03/19 01:06:17;;;;;;;1999.90;999.90;;;8.10;99.90;;;;;;5051561;28;20537;-70
2022/03/19 01:08:42;;;;;;;1999.90;999.90;;;8.10;99.90;;;;;;5051909;28;20165;-71
2022/03/19 01:11:08;;;;;;;1999.90;999.90;;;8.00;99.90;;;;;;5051793;28;20188;-71
2022/03/19 01:13:34;;;;;;;1999.90;999.90;;;8.00;99.90;;;;;;5051881;28;20169;-71
2022/03/19 01:16:01;;;;;;;1999.90;999.90;;;7.90;99.90;;;;;;5051603;28;20231;-70
2022/03/19 01:18:26;;;;;;;1999.90;999.90;;;7.90;99.90;;;;;;5051797;28;20402;-71
2022/03/19 01:20:52;;;;;;;1999.90;999.90;;;7.90;99.90;;;;;;5051686;28;20500;-71
2022/03/19 01:23:17;;;;;;;1999.90;999.90;;;7.90;99.90;;;;;;5055585;28;20199;-70
2022/03/19 01:25:43;;;;;;;1999.90;999.90;;;7.80;99.90;;;;;;5055595;28;20207;-70
2022/03/19 01:28:09;;;;;;;1999.90;999.90;;;7.80;99.90;;;;;;5055895;28;20175;-71
2022/03/19 01:30:34;;;;;;;1999.90;999.90;;;7.80;99.90;;;;;;5055681;28;20171;-70
2022/03/19 01:33:00;;;;;;;1999.90;999.90;;;7.70;99.90;;;;;;5141509;22;20218;-71
2022/03/19 01:35:25;;;;;;;1999.90;999.90;;;7.80;99.90;;;;;;5118705;28;20161;-71
2022/03/19 01:37:51;;;;;;;1999.90;999.90;;;7.70;99.90;;;;;;5118779;28;20165;-70
2022/03/19 01:40:18;;;;;;;1999.90;999.90;;;7.70;99.90;;;;;;5119040;28;20173;-71
2022/03/19 01:42:46;;;;;;;1999.90;999.90;;;7.70;99.90;;;;;;5119297;28;20193;-71
2022/03/19 01:45:15;;;;;;;1999.90;999.90;;;7.70;99.90;;;;;;5118491;28;20488;-71
2022/03/19 01:47:41;;;;;;;1999.90;999.90;;;7.70;99.90;;;;;;5118050;28;20818;-71
2022/03/19 01:50:08;;;;;;;1999.90;999.90;;;7.60;99.90;;;;;;5118777;28;20417;-71
2022/03/19 01:52:34;;;;;;;1999.90;999.90;;;7.60;99.90;;;;;;5118459;28;20417;-71
2022/03/19 01:55:00;;;;;;;1999.90;999.90;;;7.50;99.90;;;;;;5118297;28;20880;-71
2022/03/19 01:57:30;;;;;;;1999.90;999.90;;;7.50;99.90;;;;;;5118459;28;20741;-71
2022/03/19 01:59:57;;;;;;;1999.90;999.90;;;7.50;99.90;;;;;;5119040;28;20472;-70
2022/03/19 02:02:25;;;;;;;1999.90;999.90;;;7.40;99.90;;;;;;5118550;28;20485;-71
2022/03/19 02:04:52;;;;;;;1999.90;999.90;;;7.40;99.90;;;;;;5117501;27;20464;-70
2022/03/19 02:07:18;;;;;;;1999.90;999.90;;;7.30;99.90;;;;;;5118378;28;20935;-71
2022/03/19 02:09:44;;;;;;;1999.90;999.90;;;7.30;99.90;;;;;;5118596;28;20399;-71
2022/03/19 02:12:10;;;;;;;1999.90;999.90;;;7.40;99.90;;;;;;5118144;28;20194;-71
2022/03/19 02:14:39;;;;;;;1999.90;999.90;;;7.30;99.90;;;;;;5118155;28;20158;-71
2022/03/19 02:17:06;;;;;;;1999.90;999.90;;;7.30;99.90;;;;;;5118184;27;20407;-71
2022/03/19 02:19:33;;;;;;;1999.90;999.90;;;7.30;99.90;;;;;;5118058;27;20407;-71
2022/03/19 02:21:59;;;;;;;1999.90;999.90;;;7.20;99.90;;;;;;5117991;27;20955;-71
2022/03/19 02:27:09;;;;;;;1999.90;999.90;;;7.20;99.90;;;;;;5117935;28;20449;-71
2022/03/19 02:29:35;;;;;;;1999.90;999.90;;;7.30;99.90;;;;;;5117909;28;20775;-71
2022/03/19 02:32:04;;;;;;;1999.90;999.90;;;7.20;99.90;;;;;;5117453;28;20454;-71
2022/03/19 02:34:30;;;;;;;1999.90;999.90;;;7.10;99.90;;;;;;5116654;28;20555;-71
2022/03/19 02:36:55;;;;;;;1999.90;999.90;;;7.10;99.90;;;;;;5117539;28;20412;-70
2022/03/19 02:39:28;;;;;;;1999.90;999.90;;;7.10;99.90;;;;;;5117477;28;20457;-71
2022/03/19 02:41:55;;;;;;;1999.90;999.90;;;7.10;99.90;;;;;;5117680;28;20189;-71
2022/03/19 02:44:21;;;;;;;1999.90;999.90;;;7.10;99.90;;;;;;5118236;28;20412;-70
2022/03/19 02:46:49;;;;;;;1999.90;999.90;;;7.10;99.90;;;;;;5117171;28;20453;-71
2022/03/19 02:49:16;;;;;;;1999.90;999.90;;;7.10;99.90;;;;;;5117474;28;20406;-70
2022/03/19 02:51:43;;;;;;;1999.90;999.90;;;7.00;99.90;;;;;;5117414;28;20785;-71
2022/03/19 02:54:11;;;;;;;1999.90;999.90;;;7.00;99.90;;;;;;5116934;28;20404;-71
2022/03/19 02:56:38;;;;;;;1999.90;999.90;;;7.00;99.90;;;;;;5117803;27;20403;-71
2022/03/19 02:59:06;;;;;;;1999.90;999.90;;;7.10;99.90;;;;;;5117891;28;20525;-71
2022/03/19 03:01:32;;;;;;;1999.90;999.90;;;7.00;99.90;;;;;;5117628;28;20413;-71
2022/03/19 03:03:57;;;;;;;1999.90;999.90;;;7.00;99.90;;;;;;5117076;28;20769;-71
2022/03/19 03:06:24;;;;;;;1999.90;999.90;;;7.00;99.90;;;;;;5117349;28;20447;-71
2022/03/19 03:08:49;;;;;;;1999.90;999.90;;;6.90;99.90;;;;;;5117272;28;20177;-71
2022/03/19 03:11:15;;;;;;;1999.90;999.90;;;6.90;99.90;;;;;;5117425;28;20975;-71
2022/03/19 03:13:41;;;;;;;1999.90;999.90;;;6.90;99.90;;;;;;5117331;28;20162;-71
2022/03/19 03:16:07;;;;;;;1999.90;999.90;;;6.80;99.90;;;;;;5117373;28;20193;-71
2022/03/19 03:18:33;;;;;;;1999.90;999.90;;;6.80;99.90;;;;;;5117341;28;20404;-71
2022/03/19 03:20:59;;;;;;;1999.90;999.90;;;6.80;99.90;;;;;;5116547;28;20666;-71
2022/03/19 03:23:26;;;;;;;1999.90;999.90;;;6.70;99.90;;;;;;5116892;28;20452;-71
2022/03/19 03:25:52;;;;;;;1999.90;999.90;;;6.70;99.90;;;;;;5116360;28;20439;-71
2022/03/19 03:28:18;;;;;;;1999.90;999.90;;;6.70;99.90;;;;;;5116391;28;20407;-71
2022/03/19 03:30:44;;;;;;;1999.90;999.90;;;6.70;99.90;;;;;;5117091;28;20896;-70
2022/03/19 03:33:10;;;;;;;1999.90;999.90;;;6.60;99.90;;;;;;5116808;28;20431;-71
2022/03/19 03:35:35;;;;;;;1999.90;999.90;;;6.60;99.90;;;;;;5115923;28;20410;-70
2022/03/19 03:38:01;;;;;;;1999.90;999.90;;;6.50;99.90;;;;;;5114291;28;20638;-71
2022/03/19 03:40:26;;;;;;;1999.90;999.90;;;6.50;99.90;;;;;;5114309;28;20173;-70
2022/03/19 03:42:54;;;;;;;1999.90;999.90;;;6.50;99.90;;;;;;5114047;28;20228;-71
2022/03/19 03:45:20;;;;;;;1999.90;999.90;;;6.40;99.90;;;;;;5113330;27;20208;-71
2022/03/19 03:47:46;;;;;;;1999.90;999.90;;;6.40;99.90;;;;;;5113990;28;20402;-70
2022/03/19 03:50:12;;;;;;;1999.90;999.90;;;6.40;99.90;;;;;;5113933;28;20790;-71
2022/03/19 03:52:37;;;;;;;1999.90;999.90;;;6.40;99.90;;;;;;5113812;28;20193;-71
2022/03/19 03:55:06;;;;;;;1999.90;999.90;;;6.30;99.90;;;;;;5113454;28;20167;-71
2022/03/19 03:57:34;;;;;;;1999.90;999.90;;;6.30;99.90;;;;;;5113782;28;20188;-71
2022/03/19 04:00:01;;;;;;;1999.90;999.90;;;6.30;99.90;;;;;;5113655;28;20399;-71
2022/03/19 04:02:27;;;;;;;1999.90;999.90;;;6.20;99.90;;;;;;5113578;28;20430;-71
2022/03/19 04:04:52;;;;;;;1999.90;999.90;;;6.20;99.90;;;;;;5113234;27;20395;-71
2022/03/19 04:07:18;;;;;;;1999.90;999.90;;;6.30;99.90;;;;;;5113581;28;20165;-71
2022/03/19 04:09:44;;;;;;;1999.90;999.90;;;6.20;99.90;;;;;;5113497;28;20230;-71
2022/03/19 04:12:10;;;;;;;1999.90;999.90;;;6.20;99.90;;;;;;5113315;28;20191;-71
2022/03/19 04:14:35;;;;;;;1999.90;999.90;;;6.20;99.90;;;;;;5113071;28;20170;-71
2022/03/19 04:17:04;;;;;;;1999.90;999.90;;;6.30;99.90;;;;;;5113393;28;20403;-71
2022/03/19 04:19:30;;;;;;;1999.90;999.90;;;6.30;99.90;;;;;;5113359;28;20257;-71
2022/03/19 04:21:55;;;;;;;1999.90;999.90;;;6.20;99.90;;;;;;5113217;28;20498;-71
2022/03/19 04:24:21;;;;;;;1999.90;999.90;;;6.10;99.90;;;;;;5113192;28;20654;-71
2022/03/19 04:26:47;;;;;;;1999.90;999.90;;;6.00;99.90;;;;;;5113097;28;20244;-71
2022/03/19 04:29:12;;;;;;;1999.90;999.90;;;6.00;99.90;;;;;;5113102;28;20626;-71
2022/03/19 04:31:38;;;;;;;1999.90;999.90;;;5.90;99.90;;;;;;5112910;28;20922;-71
2022/03/19 04:34:04;;;;;;;1999.90;999.90;;;5.80;99.90;;;;;;5112893;28;20218;-71
2022/03/19 04:36:29;;;;;;;1999.90;999.90;;;5.80;99.90;;;;;;5113061;28;20166;-71
2022/03/19 04:38:55;;;;;;;1999.90;999.90;;;5.80;99.90;;;;;;5112918;28;20180;-71
2022/03/19 04:41:21;;;;;;;1999.90;999.90;;;5.70;99.90;;;;;;5112868;28;20166;-71
2022/03/19 04:43:46;;;;;;;1999.90;999.90;;;5.60;99.90;;;;;;5112970;28;20399;-71
2022/03/19 04:46:12;;;;;;;1999.90;999.90;;;5.70;99.90;;;;;;5112581;28;20614;-71
2022/03/19 04:48:38;;;;;;;1999.90;999.90;;;5.60;99.90;;;;;;5112796;28;20181;-71
2022/03/19 04:51:03;;;;;;;1999.90;999.90;;;5.60;99.90;;;;;;5112781;28;20158;-71
2022/03/19 04:53:29;;;;;;;1999.90;999.90;;;5.50;99.90;;;;;;5114375;28;20182;-71
2022/03/19 04:55:55;;;;;;;1999.90;999.90;;;5.40;99.90;;;;;;5112999;28;20173;-71
2022/03/19 04:58:20;;;;;;;1999.90;999.90;;;5.30;99.90;;;;;;5112786;28;20486;-70
2022/03/19 05:00:46;;;;;;;1999.90;999.90;;;5.20;99.90;;;;;;5112919;28;20201;-71
2022/03/19 05:03:13;;;;;;;1999.90;999.90;;;5.20;99.90;;;;;;5112816;28;20574;-71
2022/03/19 05:05:38;;;;;;;1999.90;999.90;;;5.20;99.90;;;;;;5112454;28;20189;-70
2022/03/19 05:08:05;;;;;;;1999.90;999.90;;;5.20;99.90;;;;;;5112731;28;20912;-71
2022/03/19 05:13:16;;;;;;;1999.90;999.90;;;5.10;99.90;;;;;;5112782;28;20461;-71
2022/03/19 05:15:41;;;;;;;1999.90;999.90;;;5.10;99.90;;;;;;5112564;28;20680;-71
2022/03/19 05:18:07;;;;;;;1999.90;999.90;;;5.10;99.90;;;;;;5112739;28;20430;-71
2022/03/19 05:20:33;;;;;;;1999.90;999.90;;;5.00;99.90;;;;;;5112732;28;20634;-71
2022/03/19 05:22:58;;;;;;;1999.90;999.90;;;5.00;99.90;;;;;;5112575;28;20359;-71
2022/03/19 05:25:24;;;;;;;1999.90;999.90;;;5.00;99.90;;;;;;5112383;28;20699;-70
2022/03/19 05:27:50;;;;;;;1999.90;999.90;;;5.00;99.90;;;;;;5113741;28;20215;-71
2022/03/19 05:30:15;;;;;;;1999.90;999.90;;;5.10;99.90;;;;;;5115353;28;20161;-71
2022/03/19 05:32:42;;;;;;;1999.90;999.90;;;5.00;99.90;;;;;;5115247;28;20205;-71
2022/03/19 05:35:08;;;;;;;1999.90;999.90;;;5.10;99.90;;;;;;5115322;28;20541;-71
2022/03/19 05:37:34;;;;;;;1999.90;999.90;;;5.00;99.90;;;;;;5115323;28;20400;-71
2022/03/19 05:40:00;;;;;;;1999.90;999.90;;;5.00;99.90;;;;;;5115318;28;20244;-71
2022/03/19 05:42:28;;;;;;;1999.90;999.90;;;5.00;99.90;;;;;;5115271;28;20189;-71
2022/03/19 05:44:54;;;;;;;1999.90;999.90;;;5.00;99.90;;;;;;5114822;28;20400;-71
2022/03/19 05:47:20;;;;;;;1999.90;999.90;;;5.00;99.90;;;;;;5114799;28;20421;-70
2022/03/19 05:49:45;;;;;;;1999.90;999.90;;;5.00;99.90;;;;;;5114741;28;20415;-71
2022/03/19 05:52:11;;;;;;;1999.90;999.90;;;5.00;99.90;;;;;;5115091;28;20423;-71
2022/03/19 05:54:36;;;;;;;1999.90;999.90;;;5.00;99.90;;;;;;5114536;28;20201;-71
2022/03/19 05:57:02;;;;;;;1999.90;999.90;;;5.00;99.90;;;;;;5115248;28;20170;-71
2022/03/19 05:59:28;;;;;;;1999.90;999.90;;;5.00;99.90;;;;;;5115009;28;20260;-71
2022/03/19 06:01:54;;;;;;;1999.90;999.90;;;5.00;99.90;;;;;;5114790;28;20190;-71
2022/03/19 06:04:20;;;;;;;1999.90;999.90;;;5.10;99.90;;;;;;5114711;28;20404;-71
2022/03/19 06:06:47;;;;;;;1999.90;999.90;;;5.20;99.90;;;;;;5112424;28;20439;-71
2022/03/19 06:09:12;;;;;;;1999.90;999.90;;;5.20;99.90;;;;;;5115842;28;20698;-71
2022/03/19 06:11:39;;;;;;;1999.90;999.90;;;5.20;99.90;;;;;;5116040;28;20512;-72
2022/03/19 06:14:05;;;;;;;1999.90;999.90;;;5.30;99.90;;;;;;5115990;28;20169;-71
2022/03/19 06:16:31;;;;;;;1999.90;999.90;;;5.20;99.90;;;;;;5115750;28;20406;-71
2022/03/19 06:18:56;;;;;;;1999.90;999.90;;;5.30;99.90;;;;;;5115690;28;20170;-71
2022/03/19 06:21:25;;;;;;;1999.90;999.90;;;5.30;99.90;;;;;;5115531;28;20405;-71
2022/03/19 06:23:52;;;;;;;1999.90;999.90;;;5.30;99.90;;;;;;5115740;28;20193;-71
2022/03/19 06:26:20;;;;;;;1999.90;999.90;;;5.30;99.90;;;;;;5115187;28;20493;-72
2022/03/19 06:28:46;;;;;;;1999.90;999.90;;;5.30;99.90;;;;;;5115572;28;20422;-71
2022/03/19 06:31:11;;;;;;;1999.90;999.90;;;5.40;99.90;;;;;;5115406;28;20427;-71
2022/03/19 06:33:41;;;;;;;1999.90;999.90;;;5.40;99.90;;;;;;5115223;28;20466;-71
2022/03/19 06:38:51;;;;;;;1999.90;999.90;;;5.60;99.90;;;;;;5115420;28;20414;-71
2022/03/19 06:41:17;;;;;;;1999.90;999.90;;;5.70;99.90;;;;;;5115088;28;20403;-71
2022/03/19 06:43:43;;;;;;;1999.90;999.90;;;5.80;99.90;;;;;;5115182;28;20200;-71
2022/03/19 06:46:09;;;;;;;1999.90;999.90;;;5.90;99.90;;;;;;5114909;28;20185;-71
2022/03/19 06:48:35;;;;;;;1999.90;999.90;;;6.00;99.90;;;;;;5115087;28;20499;-70
2022/03/19 06:51:01;;;;;;;1999.90;999.90;;;6.10;99.90;;;;;;5115058;28;20847;-71
2022/03/19 06:53:26;;;;;;;1999.90;999.90;;;6.10;99.90;;;;;;5114959;28;20228;-71
2022/03/19 06:55:52;;;;;;;1999.90;999.90;;;6.30;99.90;;;;;;5114653;28;20169;-71
2022/03/19 06:58:20;;;;;;;1999.90;999.90;;;6.40;99.90;;;;;;5114823;27;20681;-71
2022/03/19 07:00:46;;;;;;;1999.90;999.90;;;6.50;99.90;;;;;;5114845;28;20438;-71
2022/03/19 07:03:12;;;;;;;1999.90;999.90;;;6.60;99.90;;;;;;5115028;28;20451;-71
2022/03/19 07:05:38;;;;;;;1999.90;999.90;;;6.70;99.90;;;;;;5114361;28;20204;-71
2022/03/19 07:08:08;;;;;;;1999.90;999.90;;;6.80;99.90;;;;;;5114718;28;20490;-71
2022/03/19 07:10:36;;;;;;;1999.90;999.90;;;6.90;99.90;;;;;;5114693;28;20828;-71
2022/03/19 07:13:03;;;;;;;1999.90;999.90;;;7.00;99.90;;;;;;5114570;28;20423;-71
2022/03/19 07:15:29;;;;;;;1999.90;999.90;;;7.10;99.90;;;;;;5114307;28;20459;-71
2022/03/19 07:18:01;;;;;;;1999.90;999.90;;;7.30;99.90;;;;;;5114601;28;20432;-71
2022/03/19 07:20:28;;;;;;;1999.90;999.90;;;7.40;99.90;;;;;;5114036;27;20472;-71
2022/03/19 07:22:59;;;;;;;1999.90;999.90;;;7.50;99.90;;;;;;5114331;28;20460;-71
2022/03/19 07:25:27;;;;;;;1999.90;999.90;;;7.60;99.90;;;;;;5113988;28;20440;-71
2022/03/19 07:27:54;;;;;;;1999.90;999.90;;;7.70;99.90;;;;;;5114408;28;20408;-70
2022/03/19 07:30:20;;;;;;;1999.90;999.90;;;7.80;99.90;;;;;;5114337;28;20464;-71
2022/03/19 07:32:46;;;;;;;1999.90;999.90;;;7.90;99.90;;;;;;5137779;22;20489;-71
2022/03/19 07:35:13;;;;;;;1999.90;999.90;;;7.90;99.90;;;;;;5074078;28;20401;-71
2022/03/19 07:37:40;;;;;;;1999.90;999.90;;;8.00;99.90;;;;;;5074186;28;20436;-71
2022/03/19 07:40:11;;;;;;;1999.90;999.90;;;8.10;99.90;;;;;;5074105;28;20763;-71
2022/03/19 07:42:37;;;;;;;1999.90;999.90;;;8.20;99.90;;;;;;5073964;28;20428;-71
2022/03/19 07:45:04;;;;;;;1999.90;999.90;;;8.30;99.90;;;;;;5073821;28;20459;-71
2022/03/19 07:47:31;;;;;;;1999.90;999.90;;;8.30;99.90;;;;;;5073861;28;20398;-71
2022/03/19 07:49:57;;;;;;;1999.90;999.90;;;8.40;99.90;;;;;;5073994;28;20770;-71
2022/03/19 07:52:24;;;;;;;1999.90;999.90;;;8.40;99.90;;;;;;5073634;28;20417;-72
2022/03/19 07:54:52;;;;;;;1999.90;999.90;;;8.60;99.90;;;;;;5073772;28;20441;-71
2022/03/19 07:57:17;;;;;;;1999.90;999.90;;;8.70;99.90;;;;;;5073855;28;20822;-72
2022/03/19 07:59:43;;;;;;;1999.90;999.90;;;8.80;99.90;;;;;;5073878;28;20428;-72
2022/03/19 08:02:08;;;;;;;1999.90;999.90;;;8.90;99.90;;;;;;5055833;28;20202;-72
2022/03/19 08:04:34;;;;;;;1999.90;999.90;;;9.00;99.90;;;;;;5075226;28;20203;-72
2022/03/19 08:06:59;;;;;;;1999.90;999.90;;;9.10;99.90;;;;;;5075642;28;20566;-71
2022/03/19 08:09:25;;;;;;;1999.90;999.90;;;9.20;99.90;;;;;;5075435;28;20179;-71
2022/03/19 08:11:52;;;;;;;1999.90;999.90;;;9.30;99.90;;;;;;5075732;28;20684;-72
2022/03/19 08:14:19;;;;;;;1999.90;999.90;;;9.40;99.90;;;;;;5075378;28;20516;-72
2022/03/19 08:16:46;;;;;;;1999.90;999.90;;;9.50;99.90;;;;;;5075394;28;20409;-72
2022/03/19 08:19:13;;;;;;;1999.90;999.90;;;9.60;99.90;;;;;;5075661;28;20409;-72
2022/03/19 08:21:40;;;;;;;1999.90;999.90;;;9.70;99.90;;;;;;5073604;28;20453;-72
2022/03/19 08:24:06;;;;;;;1999.90;999.90;;;9.70;99.90;;;;;;5073074;28;20426;-72
2022/03/19 08:26:33;;;;;;;1999.90;999.90;;;9.90;99.90;;;;;;5073065;28;20454;-72
2022/03/19 08:28:58;;;;;;;1999.90;999.90;;;10.00;99.90;;;;;;5072548;28;20477;-71
2022/03/19 08:31:24;;;;;;;1999.90;999.90;;;10.20;99.90;;;;;;5071666;28;20780;-71
2022/03/19 08:33:50;;;;;;;1999.90;999.90;;;10.20;99.90;;;;;;5072224;28;20552;-71
2022/03/19 08:36:16;;;;;;;1999.90;999.90;;;10.40;99.90;;;;;;5072071;28;20404;-71
2022/03/19 08:41:26;;;;;;;1999.90;999.90;;;10.50;99.90;;;;;;5072392;28;20254;-71
2022/03/19 08:43:51;;;;;;;1999.90;999.90;;;10.60;99.90;;;;;;5072151;28;20525;-71
2022/03/19 08:46:17;;;;;;;1999.90;999.90;;;10.60;99.90;;;;;;5072012;28;20194;-72
2022/03/19 08:48:42;;;;;;;1999.90;999.90;;;10.70;99.90;;;;;;5072224;28;20168;-71
2022/03/19 08:53:52;;;;;;;1999.90;999.90;;;10.80;99.90;;;;;;5072111;28;20254;-71
2022/03/19 08:56:18;;;;;;;1999.90;999.90;;;10.90;99.90;;;;;;5071793;28;20817;-71
2022/03/19 08:58:44;;;;;;;1999.90;999.90;;;11.00;99.90;;;;;;5072042;28;20178;-71
2022/03/19 09:01:09;;;;;;;1999.90;999.90;;;11.10;99.90;;;;;;5072107;28;20173;-71
2022/03/19 09:03:35;;;;;;;1999.90;999.90;;;11.10;99.90;;;;;;5071902;28;20702;-71
2022/03/19 09:06:01;;;;;;;1999.90;999.90;;;11.20;99.90;;;;;;5067484;28;20206;-71
2022/03/19 09:08:27;;;;;;;1999.90;999.90;;;11.20;99.90;;;;;;5071438;28;20220;-71
2022/03/19 09:10:53;;;;;;;1999.90;999.90;;;11.20;99.90;;;;;;5071511;28;20455;-71
2022/03/19 09:13:19;;;;;;;1999.90;999.90;;;11.30;99.90;;;;;;5071107;28;20179;-71
2022/03/19 09:15:45;;;;;;;1999.90;999.90;;;11.40;99.90;;;;;;5071086;28;20503;-71
2022/03/19 09:18:10;;;;;;;1999.90;999.90;;;11.50;99.90;;;;;;5071557;28;20228;-71
2022/03/19 09:20:36;;;;;;;1999.90;999.90;;;11.50;99.90;;;;;;5071073;28;20401;-71
2022/03/19 09:23:03;;;;;;;1999.90;999.90;;;11.60;99.90;;;;;;5071395;28;20189;-71
2022/03/19 09:25:29;;;;;;;1999.90;999.90;;;11.70;99.90;;;;;;5070962;28;20190;-71
2022/03/19 09:27:55;;;;;;;1999.90;999.90;;;11.80;99.90;;;;;;5053065;28;20507;-71
2022/03/19 09:30:21;;;;;;;1999.90;999.90;;;11.90;99.90;;;;;;5071461;28;20397;-71
2022/03/19 09:32:46;;;;;;;1999.90;999.90;;;11.90;99.90;;;;;;5071164;28;20802;-71
2022/03/19 09:35:12;;;;;;;1999.90;999.90;;;11.90;99.90;;;;;;5073395;28;20201;-71
2022/03/19 09:37:38;;;;;;;1999.90;999.90;;;11.90;99.90;;;;;;5091738;28;20174;-72
2022/03/19 09:40:04;;;;;;;1999.90;999.90;;;12.00;99.90;;;;;;5073551;28;20174;-71
2022/03/19 09:42:32;;;;;;;1999.90;999.90;;;12.20;99.90;;;;;;5073289;28;20198;-71
2022/03/19 09:44:59;;;;;;;1999.90;999.90;;;12.30;99.90;;;;;;5095098;28;20650;-72
2022/03/19 09:47:27;;;;;;;1999.90;999.90;;;12.40;99.90;;;;;;5080900;28;21215;-71
2022/03/19 09:49:53;;;;;;;1999.90;999.90;;;12.40;99.90;;;;;;5075563;28;20753;-71
2022/03/19 09:52:20;;;;;;;1999.90;999.90;;;12.50;99.90;;;;;;5075870;28;20433;-71
2022/03/19 09:54:46;;;;;;;1999.90;999.90;;;12.60;99.90;;;;;;5075310;28;20397;-72
2022/03/19 09:57:12;;;;;;;1999.90;999.90;;;12.70;99.90;;;;;;5074531;28;20774;-72
2022/03/19 09:59:37;;;;;;;1999.90;999.90;;;12.80;99.90;;;;;;5075019;28;20494;-72
2022/03/19 10:02:07;;;;;;;1999.90;999.90;;;12.90;99.90;;;;;;5074976;28;20837;-72
2022/03/19 10:04:37;;;;;;;1999.90;999.90;;;12.90;99.90;;;;;;5074302;28;20275;-72
2022/03/19 10:09:48;;;;;;;1999.90;999.90;;;13.10;99.90;;;;;;5075004;28;20905;-72
2022/03/19 10:12:27;;;;;;;1999.90;999.90;;;13.20;99.90;;;;;;5074238;28;20440;-72
2022/03/19 10:14:54;;;;;;;1999.90;999.90;;;13.40;99.90;;;;;;5074568;28;20425;-72
2022/03/19 10:17:37;;;;;;;1999.90;999.90;;;13.40;99.90;;;;;;5074562;28;20415;-72
2022/03/19 10:20:07;;;;;;;1999.90;999.90;;;13.50;99.90;;;;;;5074220;28;20816;-72
2022/03/19 10:22:34;;;;;;;1999.90;999.90;;;13.50;99.90;;;;;;5074261;28;20424;-72
2022/03/19 10:25:06;;;;;;;1999.90;999.90;;;13.60;99.90;;;;;;5074321;28;20445;-72
2022/03/19 10:27:40;;;;;;;1999.90;999.90;;;13.70;99.90;;;;;;5073985;28;20406;-72
2022/03/19 10:30:16;;;;;;;1999.90;999.90;;;14.00;99.90;;;;;;5074480;28;20395;-72
2022/03/19 10:32:44;;;;;;;1999.90;999.90;;;14.00;99.90;;;;;;5072971;28;20456;-71
2022/03/19 10:35:34;;;;;;;1999.90;999.90;;;14.10;99.90;;;;;;5073744;28;20442;-71
2022/03/19 10:38:20;;;;;;;1999.90;999.90;;;14.20;99.90;;;;;;5073982;28;20401;-72
2022/03/19 10:40:47;;;;;;;1999.90;999.90;;;14.30;99.90;;;;;;5073893;28;20908;-71
2022/03/19 10:43:17;;;;;;;1999.90;999.90;;;14.50;99.90;;;;;;5074225;28;20512;-72
2022/03/19 10:45:48;;;;;;;1999.90;999.90;;;14.70;99.90;;;;;;5073623;28;20528;-72
2022/03/19 10:48:25;;;;;;;1999.90;999.90;;;14.70;99.90;;;;;;5073755;28;20402;-71
2022/03/19 10:50:52;;;;;;;1999.90;999.90;;;14.90;99.90;;;;;;5056098;28;20422;-72
2022/03/19 10:53:19;;;;;;;1999.90;999.90;;;15.10;99.90;;;;;;5079109;28;20421;-72
2022/03/19 10:55:45;;;;;;;1999.90;999.90;;;15.10;99.90;;;;;;5072661;28;20420;-72
2022/03/19 10:58:11;;;;;;;1999.90;999.90;;;15.20;99.90;;;;;;5059063;28;20424;-72
2022/03/19 11:00:38;;;;;;;1999.90;999.90;;;15.10;99.90;;;;;;5073852;28;20416;-72
2022/03/19 11:03:17;;;;;;;1999.90;999.90;;;15.20;99.90;;;;;;5073274;28;20431;-72
2022/03/19 11:05:45;;;;;;;1999.90;999.90;;;15.30;99.30;;;;;;5073366;28;21021;-72
2022/03/19 11:08:13;;;;;;;1999.90;999.90;;;15.40;99.40;;;;;;5073834;28;20419;-72
2022/03/19 11:10:40;;;;;;;1999.90;999.90;;;15.50;95.50;;;;;;5073350;28;20399;-71
2022/03/19 11:13:12;;;;;;;1999.90;999.90;;;15.60;94.60;;;;;;5073688;28;20566;-71
2022/03/19 11:15:39;;;;;;;1999.90;999.90;;;15.70;91.40;;;;;;5073390;28;20402;-71
2022/03/19 11:18:07;;;;;;;1999.90;999.90;;;15.80;90.70;;;;;;5073193;28;20408;-71
2022/03/19 11:20:33;;;;;;;1999.90;999.90;;;15.90;85.30;;;;;;5073625;28;20432;-72
2022/03/19 11:23:01;;;;;;;1999.90;999.90;;;16.00;85.70;;;;;;5073318;28;20506;-72
2022/03/19 11:25:26;;;;;;;1999.90;999.90;;;16.10;79.40;;;;;;5072620;28;20448;-71
2022/03/19 11:28:00;;;;;;;1999.90;999.90;;;16.20;74.30;;;;;;5073305;28;20412;-71
2022/03/19 11:30:27;;;;;;;1999.90;999.90;;;16.20;71.50;;;;;;5074218;28;20164;-72
2022/03/19 11:33:17;;;;;;;1999.90;999.90;;;16.30;65.00;;;;;;5074673;28;20858;-72
2022/03/19 11:36:04;;;;;;;1999.90;999.90;;;16.40;67.90;;;;;;5074594;28;20397;-72
2022/03/19 11:38:31;;;;;;;1999.90;999.90;;;16.40;63.30;;;;;;5074854;28;20404;-72
2022/03/19 11:41:00;;;;;;;1999.90;999.90;;;16.60;59.30;;;;;;5074754;28;20467;-72
2022/03/19 11:43:30;;;;;;;1999.90;999.90;;;16.60;59.00;;;;;;5074568;28;20843;-72
2022/03/19 11:45:55;;;;;;;1999.90;999.90;;;16.70;55.10;;;;;;5074161;28;21013;-72
2022/03/19 11:48:39;;;;;;;1999.90;999.90;;;17.00;54.00;;;;;;5074474;28;20410;-72
2022/03/19 11:51:40;;;;;;;1999.90;999.90;;;17.50;51.30;;;;;;5073380;28;20703;-72
2022/03/19 11:54:16;;;;;;;1999.90;999.90;;;18.30;47.80;;;;;;4971524;28;20414;-72
2022/03/19 11:56:41;;;;;;;1999.90;999.90;;;19.10;41.00;;;;;;5058895;28;20429;-72
2022/03/19 11:59:16;;;;;;;1999.90;999.90;;;19.90;34.90;;;;;;5072741;28;20756;-73
2022/03/19 12:01:54;;;;;;;1999.90;999.90;;;20.90;32.20;;;;;;5072233;28;20199;-73
2022/03/19 12:04:21;;;;;;;1999.90;999.90;;;21.50;28.80;;;;;;5072417;28;20391;-73
2022/03/19 12:06:58;;;;;;;1999.90;999.90;;;21.90;26.20;;;;;;5072215;28;20520;-73
2022/03/19 12:09:53;;;;;;;1999.90;999.90;;;22.60;25.40;;;;;;5071906;28;20932;-73
2022/03/19 12:12:25;;;;;;;1999.90;999.90;;;23.20;20.10;;;;;;5072361;28;20436;-73
2022/03/19 12:14:51;;;;;;;1999.90;999.90;;;23.60;16.30;;;;;;5072165;28;20408;-73
2022/03/19 12:17:25;;;;;;;1999.90;999.90;;;23.70;13.70;;;;;;5071820;28;20376;-73
2022/03/19 12:20:03;;;;;;;1999.90;999.90;;;23.70;11.00;;;;;;5072282;28;20390;-73
2022/03/19 12:22:39;;;;;;;1999.90;999.90;;;23.70;11.90;;;;;;5072398;28;20533;-73